createdAt,value
2023-04-19T00:01:10.615Z,4.47
2023-04-19T00:03:40.179Z,5.53
2023-04-19T00:06:07.737Z,6.00
2023-04-19T00:08:34.416Z,5.20
2023-04-19T00:11:00.922Z,5.73
2023-04-19T00:13:27.419Z,5.33
2023-04-19T00:15:53.934Z,6.03
2023-04-19T00:18:20.421Z,5.30
2023-04-19T00:20:48.246Z,6.73
2023-04-19T00:23:14.739Z,7.20
2023-04-19T00:25:41.338Z,6.93
2023-04-19T00:28:07.882Z,6.83
2023-04-19T00:30:34.451Z,12.13
2023-04-19T00:33:01.038Z,8.60
2023-04-19T00:35:27.630Z,6.47
2023-04-19T00:37:54.119Z,5.53
2023-04-19T00:40:20.674Z,4.73
2023-04-19T00:42:47.178Z,8.10
2023-04-19T00:45:14.023Z,4.97
2023-04-19T00:47:40.965Z,4.83
2023-04-19T00:50:08.720Z,10.57
2023-04-19T00:52:35.866Z,5.53
2023-04-19T00:55:03.904Z,4.70
2023-04-19T00:57:30.880Z,4.20
2023-04-19T00:59:58.141Z,5.03
2023-04-19T01:02:24.784Z,5.27
2023-04-19T01:04:51.962Z,8.60
2023-04-19T01:07:19.653Z,4.20
2023-04-19T01:09:46.824Z,8.07
2023-04-19T01:12:13.513Z,4.23
2023-04-19T01:14:40.512Z,8.83
2023-04-19T01:17:07.916Z,3.97
2023-04-19T01:19:36.226Z,4.07
2023-04-19T01:22:03.391Z,7.67
2023-04-19T01:24:31.137Z,3.10
2023-04-19T01:26:57.807Z,5.53
2023-04-19T01:29:24.375Z,5.00
2023-04-19T01:31:52.736Z,4.10
2023-04-19T01:34:25.027Z,3.43
2023-04-19T01:36:51.502Z,4.60
2023-04-19T01:39:17.972Z,3.90
2023-04-19T01:41:44.450Z,7.47
2023-04-19T01:44:11.426Z,4.27
2023-04-19T01:46:38.247Z,4.57
2023-04-19T01:49:04.895Z,4.47
2023-04-19T01:51:31.365Z,4.43
2023-04-19T01:53:57.836Z,4.37
2023-04-19T01:56:24.407Z,3.70
2023-04-19T01:58:50.983Z,5.93
2023-04-19T02:01:17.523Z,3.30
2023-04-19T02:03:44.164Z,4.70
2023-04-19T02:06:12.913Z,4.10
2023-04-19T02:08:41.442Z,3.10
2023-04-19T02:11:15.740Z,3.73
2023-04-19T02:13:42.802Z,3.20
2023-04-19T02:16:10.572Z,4.00
2023-04-19T02:18:37.777Z,3.40
2023-04-19T02:21:06.105Z,4.10
2023-04-19T02:23:32.772Z,4.03
2023-04-19T02:26:00.723Z,3.57
2023-04-19T02:28:27.224Z,6.60
2023-04-19T02:30:53.704Z,3.30
2023-04-19T02:33:22.395Z,5.77
2023-04-19T02:35:49.048Z,4.60
2023-04-19T02:38:15.788Z,4.20
2023-04-19T02:40:42.276Z,5.07
2023-04-19T02:43:08.775Z,5.13
2023-04-19T02:45:36.405Z,4.00
2023-04-19T02:48:03.269Z,5.47
2023-04-19T02:50:30.455Z,2.40
2023-04-19T02:52:58.146Z,4.37
2023-04-19T02:55:24.599Z,3.00
2023-04-19T02:57:52.197Z,2.63
2023-04-19T03:00:18.744Z,6.20
2023-04-19T03:02:45.302Z,3.63
2023-04-19T03:05:11.866Z,3.80
2023-04-19T03:07:38.314Z,3.10
2023-04-19T03:10:06.216Z,2.90
2023-04-19T03:12:32.689Z,6.00
2023-04-19T03:14:59.194Z,3.97
2023-04-19T03:17:25.734Z,4.17
2023-04-19T03:19:52.238Z,4.40
2023-04-19T03:22:20.839Z,2.90
2023-04-19T03:24:47.296Z,2.53
2023-04-19T03:27:13.779Z,2.37
2023-04-19T03:29:40.269Z,2.13
2023-04-19T03:32:07.268Z,2.50
2023-04-19T03:34:33.763Z,2.37
2023-04-19T03:37:00.250Z,5.00
2023-04-19T03:39:27.495Z,6.00
2023-04-19T03:41:53.978Z,3.93
2023-04-19T03:44:20.483Z,3.53
2023-04-19T03:46:47.987Z,7.57
2023-04-19T03:49:14.489Z,1.60
2023-04-19T03:51:40.936Z,5.40
2023-04-19T03:54:07.434Z,8.23
2023-04-19T03:56:33.896Z,4.93
2023-04-19T03:59:00.377Z,2.20
2023-04-19T04:01:27.492Z,2.80
2023-04-19T04:03:54.168Z,2.30
2023-04-19T04:06:23.933Z,2.33
2023-04-19T04:08:50.390Z,3.77
2023-04-19T04:11:16.889Z,3.73
2023-04-19T04:13:45.682Z,4.70
2023-04-19T04:16:12.344Z,3.47
2023-04-19T04:18:38.890Z,1.73
2023-04-19T04:21:05.391Z,3.93
2023-04-19T04:23:33.135Z,4.80
2023-04-19T04:26:00.360Z,2.23
2023-04-19T04:28:27.835Z,21.40
2023-04-19T04:30:59.533Z,14.07
2023-04-19T04:33:27.826Z,50.87
2023-04-19T04:35:55.643Z,17.70
2023-04-19T04:38:24.869Z,11.03
2023-04-19T04:40:53.963Z,1.23
2023-04-19T04:43:28.196Z,24.50
2023-04-19T04:45:56.994Z,7.80
2023-04-19T04:48:24.224Z,2.13
2023-04-19T04:50:50.862Z,4.27
2023-04-19T04:53:17.379Z,4.37
2023-04-19T04:55:44.207Z,6.40
2023-04-19T04:58:10.712Z,5.37
2023-04-19T05:00:37.428Z,7.37
2023-04-19T05:03:04.083Z,4.00
2023-04-19T05:05:30.704Z,3.93
2023-04-19T05:07:57.209Z,6.77
2023-04-19T05:10:23.779Z,7.70
2023-04-19T05:12:50.325Z,6.87
2023-04-19T05:15:16.877Z,10.13
2023-04-19T05:17:43.522Z,6.40
2023-04-19T05:20:10.489Z,3.97
2023-04-19T05:22:37.128Z,6.97
2023-04-19T05:25:04.754Z,5.37
2023-04-19T05:27:31.287Z,7.10
2023-04-19T05:29:57.791Z,5.13
2023-04-19T05:32:24.321Z,2.83
2023-04-19T05:34:50.848Z,4.80
2023-04-19T05:37:17.329Z,9.47
2023-04-19T05:39:44.789Z,7.83
2023-04-19T05:42:11.482Z,6.50
2023-04-19T05:44:37.998Z,2.33
2023-04-19T05:47:05.407Z,2.60
2023-04-19T05:49:31.890Z,3.27
2023-04-19T05:51:58.389Z,5.10
2023-04-19T05:54:25.023Z,4.00
2023-04-19T05:56:51.558Z,2.67
2023-04-19T05:59:18.069Z,4.27
2023-04-19T06:01:44.720Z,7.10
2023-04-19T06:04:11.541Z,3.00
2023-04-19T06:06:38.260Z,9.33
2023-04-19T06:09:06.256Z,9.50
2023-04-19T06:11:42.956Z,8.77
2023-04-19T06:14:14.301Z,11.53
2023-04-19T06:16:41.335Z,8.90
2023-04-19T06:19:08.048Z,5.47
2023-04-19T06:21:35.183Z,3.67
2023-04-19T06:24:01.758Z,7.20
2023-04-19T06:26:28.244Z,4.73
2023-04-19T06:28:54.830Z,3.03
2023-04-19T06:31:21.494Z,6.80
2023-04-19T06:33:48.040Z,7.70
2023-04-19T06:36:14.578Z,7.47
2023-04-19T06:38:41.110Z,8.20
2023-04-19T06:41:08.495Z,12.30
2023-04-19T06:43:34.986Z,23.77
2023-04-19T06:46:03.912Z,13.80
2023-04-19T06:48:30.597Z,20.90
2023-04-19T06:50:57.270Z,15.67
2023-04-19T06:53:23.766Z,14.37
2023-04-19T06:56:06.087Z,16.30
2023-04-19T06:58:34.683Z,12.80
2023-04-19T07:01:03.617Z,5.77
2023-04-19T07:03:30.228Z,4.03
2023-04-19T07:05:56.831Z,10.37
2023-04-19T07:08:27.843Z,8.23
2023-04-19T07:10:59.000Z,3.57
2023-04-19T07:13:25.552Z,2.23
2023-04-19T07:15:52.050Z,2.63
2023-04-19T07:18:18.654Z,7.20
2023-04-19T07:20:47.865Z,11.87
2023-04-19T07:23:15.105Z,11.63
2023-04-19T07:25:41.589Z,2.83
2023-04-19T07:28:08.093Z,5.07
2023-04-19T07:30:36.072Z,4.17
2023-04-19T07:33:04.156Z,2.63
2023-04-19T07:35:31.068Z,2.97
2023-04-19T07:37:57.567Z,2.80
2023-04-19T07:40:24.074Z,6.18
2023-04-19T07:42:50.583Z,6.20
2023-04-19T07:45:17.156Z,5.90
2023-04-19T07:47:43.911Z,5.77
2023-04-19T07:50:11.736Z,8.40
2023-04-19T07:52:38.373Z,9.52
2023-04-19T07:55:07.083Z,10.07
2023-04-19T07:57:35.147Z,6.87
2023-04-19T08:00:01.657Z,15.90
2023-04-19T08:02:28.395Z,5.40
2023-04-19T08:04:55.893Z,4.45
2023-04-19T08:07:22.819Z,7.35
2023-04-19T08:09:49.527Z,5.35
2023-04-19T08:12:32.748Z,4.68
2023-04-19T08:15:13.550Z,4.32
2023-04-19T08:17:55.660Z,3.15
2023-04-19T08:20:22.532Z,3.08
2023-04-19T08:22:49.076Z,3.28
2023-04-19T08:25:15.959Z,4.53
2023-04-19T08:27:42.508Z,5.47
2023-04-19T08:30:10.284Z,8.10
2023-04-19T08:32:37.250Z,7.55
2023-04-19T08:35:04.808Z,6.00
2023-04-19T08:37:31.314Z,2.58
2023-04-19T08:39:57.859Z,5.72
2023-04-19T08:42:33.100Z,9.50
2023-04-19T08:47:52.100Z,3.83
2023-04-19T08:50:32.554Z,6.55
2023-04-19T08:53:16.299Z,5.90
2023-04-19T08:58:28.897Z,7.78
2023-04-19T09:01:08.315Z,3.05
2023-04-19T09:03:59.415Z,13.55
2023-04-19T09:06:34.582Z,7.35
2023-04-19T09:11:52.685Z,7.10
2023-04-19T09:14:21.770Z,3.45
2023-04-19T09:16:51.164Z,3.47
2023-04-19T09:19:23.915Z,3.45
2023-04-19T09:21:52.864Z,7.35
2023-04-19T09:24:19.344Z,2.87
2023-04-19T09:26:57.037Z,3.55
2023-04-19T09:29:23.749Z,5.43
2023-04-19T09:31:58.641Z,11.25
2023-04-19T09:34:25.204Z,5.20
2023-04-19T09:37:00.715Z,4.90
2023-04-19T09:39:35.479Z,4.50
2023-04-19T09:42:02.296Z,6.47
2023-04-19T09:46:58.356Z,6.03
2023-04-19T09:49:37.485Z,7.00
2023-04-19T09:52:12.875Z,5.37
2023-04-19T09:54:40.822Z,5.85
2023-04-19T09:57:08.288Z,5.45
2023-04-19T09:59:39.152Z,7.72
2023-04-19T10:02:07.092Z,4.15
2023-04-19T10:04:57.104Z,4.75
2023-04-19T10:07:38.252Z,5.87
2023-04-19T10:10:18.470Z,4.87
2023-04-19T10:13:11.696Z,4.43
2023-04-19T10:15:52.576Z,4.60
2023-04-19T10:18:20.880Z,5.90
2023-04-19T10:21:05.874Z,5.65
2023-04-19T10:23:34.047Z,5.43
2023-04-19T10:26:00.519Z,5.97
2023-04-19T10:28:30.194Z,8.38
2023-04-19T10:31:04.623Z,5.03
2023-04-19T10:33:36.539Z,5.00
2023-04-19T10:36:07.703Z,5.40
2023-04-19T10:39:39.096Z,6.87
2023-04-19T10:42:05.673Z,4.68
2023-04-19T10:44:32.243Z,18.40
2023-04-19T10:46:59.577Z,8.75
2023-04-19T10:49:28.170Z,8.90
2023-04-19T10:51:55.482Z,6.07
2023-04-19T10:54:32.723Z,8.03
2023-04-19T10:57:03.663Z,7.28
2023-04-19T10:59:34.883Z,8.65
2023-04-19T11:02:27.478Z,5.78
2023-04-19T11:05:03.205Z,4.12
2023-04-19T11:07:37.936Z,5.50
2023-04-19T11:10:04.931Z,4.87
2023-04-19T11:12:31.430Z,5.93
2023-04-19T11:14:59.684Z,8.18
2023-04-19T11:17:31.683Z,8.05
2023-04-19T11:20:09.084Z,5.00
2023-04-19T11:22:42.013Z,7.35
2023-04-19T11:25:18.397Z,10.77
2023-04-19T11:27:53.006Z,5.60
2023-04-19T11:30:29.752Z,4.72
2023-04-19T11:32:57.509Z,8.90
2023-04-19T11:35:26.872Z,7.45
2023-04-19T11:37:55.531Z,18.23
2023-04-19T11:40:25.446Z,4.78
2023-04-19T11:43:04.189Z,20.83
2023-04-19T11:45:39.414Z,7.30
2023-04-19T11:48:16.356Z,9.10
2023-04-19T11:50:45.061Z,6.73
2023-04-19T11:53:23.837Z,8.02
2023-04-19T11:55:56.855Z,5.47
2023-04-19T11:58:30.368Z,8.40
2023-04-19T12:01:09.160Z,5.60
2023-04-19T12:03:48.702Z,6.45
2023-04-19T12:06:27.051Z,26.80
2023-04-19T12:08:55.597Z,8.52
2023-04-19T12:11:26.028Z,6.53
2023-04-19T12:14:09.363Z,4.68
2023-04-19T12:16:35.951Z,17.10
2023-04-19T12:19:17.672Z,9.80
2023-04-19T12:21:46.297Z,6.87
2023-04-19T12:24:15.975Z,4.67
2023-04-19T12:26:56.759Z,5.03
2023-04-19T12:29:23.416Z,5.50
2023-04-19T12:31:50.311Z,6.73
2023-04-19T12:34:16.875Z,7.10
2023-04-19T12:36:43.379Z,6.90
2023-04-19T12:39:09.917Z,5.12
2023-04-19T12:41:36.403Z,6.28
2023-04-19T12:44:02.915Z,9.70
2023-04-19T12:46:29.449Z,4.03
2023-04-19T12:48:56.013Z,10.40
2023-04-19T12:51:22.494Z,8.75
2023-04-19T12:53:49.810Z,7.53
2023-04-19T12:56:17.283Z,12.55
2023-04-19T12:58:43.792Z,7.00
2023-04-19T13:01:10.685Z,7.78
2023-04-19T13:03:37.492Z,7.55
2023-04-19T13:06:05.134Z,7.12
2023-04-19T13:08:44.134Z,7.37
2023-04-19T13:11:12.444Z,7.12
2023-04-19T13:13:38.942Z,8.00
2023-04-19T13:16:07.136Z,10.32
2023-04-19T13:18:33.640Z,8.07
2023-04-19T13:21:00.146Z,10.10
2023-04-19T13:23:26.642Z,8.45
2023-04-19T13:25:53.142Z,7.57
2023-04-19T13:28:19.620Z,8.05
2023-04-19T13:30:46.169Z,7.95
2023-04-19T13:33:12.663Z,8.25
2023-04-19T13:35:39.143Z,9.85
2023-04-19T13:38:05.627Z,7.97
2023-04-19T13:40:32.145Z,10.53
2023-04-19T13:42:58.755Z,9.05
2023-04-19T13:45:25.243Z,9.38
2023-04-19T13:47:51.783Z,9.73
2023-04-19T13:50:18.300Z,8.60
2023-04-19T13:52:44.842Z,9.53
2023-04-19T13:55:11.331Z,9.30
2023-04-19T13:57:37.990Z,9.63
2023-04-19T14:00:05.932Z,10.03
2023-04-19T14:02:33.195Z,14.00
2023-04-19T14:04:59.816Z,11.30
2023-04-19T14:07:26.329Z,11.20
2023-04-19T14:09:52.809Z,10.93
2023-04-19T14:12:19.323Z,15.63
2023-04-19T14:14:45.892Z,9.45
2023-04-19T14:17:12.391Z,9.33
2023-04-19T14:19:38.855Z,8.67
2023-04-19T14:22:05.588Z,8.87
2023-04-19T14:24:32.248Z,9.85
2023-04-19T14:27:10.414Z,16.40
2023-04-19T14:29:38.921Z,6.93
2023-04-19T14:32:23.581Z,7.83
2023-04-19T14:34:51.758Z,10.52
2023-04-19T14:37:18.702Z,9.30
2023-04-19T14:39:45.696Z,10.77
2023-04-19T14:42:12.295Z,9.02
2023-04-19T14:44:40.861Z,7.82
2023-04-19T14:47:07.407Z,10.13
2023-04-19T14:49:33.903Z,12.40
2023-04-19T14:52:00.444Z,7.40
2023-04-19T14:54:26.930Z,9.68
2023-04-19T14:56:53.504Z,9.82
2023-04-19T14:59:20.017Z,11.48
2023-04-19T15:01:46.572Z,14.97
2023-04-19T15:04:13.517Z,12.07
2023-04-19T15:06:40.569Z,14.02
2023-04-19T15:09:07.070Z,13.82
2023-04-19T15:11:33.574Z,10.47
2023-04-19T15:14:00.131Z,12.88
2023-04-19T15:16:26.664Z,9.10
2023-04-19T15:18:53.204Z,10.60
2023-04-19T15:21:23.752Z,9.95
2023-04-19T15:23:51.108Z,11.90
2023-04-19T15:26:17.633Z,9.67
2023-04-19T15:28:44.100Z,9.23
2023-04-19T15:31:10.704Z,7.57
2023-04-19T15:33:37.313Z,10.80
2023-04-19T15:36:04.231Z,10.37
2023-04-19T15:38:32.106Z,11.67
2023-04-19T15:41:00.438Z,12.17
2023-04-19T15:43:26.994Z,9.77
2023-04-19T15:45:53.613Z,12.93
2023-04-19T15:48:20.915Z,12.60
2023-04-19T15:50:47.643Z,10.83
2023-04-19T15:53:14.558Z,14.57
2023-04-19T15:55:41.078Z,10.93
2023-04-19T15:58:07.551Z,11.37
2023-04-19T16:00:34.085Z,16.37
2023-04-19T16:03:00.743Z,10.87
2023-04-19T16:05:27.505Z,9.70
2023-04-19T16:08:06.287Z,13.20
2023-04-19T16:10:33.260Z,16.80
2023-04-19T16:13:00.733Z,13.63
2023-04-19T16:15:28.151Z,14.90
2023-04-19T16:17:54.801Z,13.53
2023-04-19T16:20:21.461Z,11.47
2023-04-19T16:22:48.498Z,9.33
2023-04-19T16:25:16.067Z,9.23
2023-04-19T16:27:45.061Z,6.60
2023-04-19T16:30:13.823Z,18.03
2023-04-19T16:32:40.914Z,8.43
2023-04-19T16:35:08.194Z,9.23
2023-04-19T16:37:35.322Z,7.50
2023-04-19T16:40:09.415Z,8.93
2023-04-19T16:42:38.241Z,9.47
2023-04-19T16:45:07.652Z,8.13
2023-04-19T16:47:35.414Z,8.30
2023-04-19T16:50:05.279Z,9.43
2023-04-19T16:52:34.106Z,8.17
2023-04-19T16:55:02.962Z,7.90
2023-04-19T16:57:30.368Z,10.63
2023-04-19T16:59:57.248Z,7.20
2023-04-19T17:02:24.009Z,10.57
2023-04-19T17:04:50.860Z,8.50
2023-04-19T17:07:17.448Z,10.00
2023-04-19T17:09:43.960Z,6.30
2023-04-19T17:12:10.464Z,8.43
2023-04-19T17:14:38.894Z,6.30
2023-04-19T17:17:05.429Z,4.73
2023-04-19T17:19:31.896Z,5.40
2023-04-19T17:22:04.202Z,6.17
2023-04-19T17:24:33.795Z,4.17
2023-04-19T17:27:00.701Z,5.00
2023-04-19T17:29:27.220Z,6.33
2023-04-19T17:31:53.949Z,9.17
2023-04-19T17:34:20.510Z,5.63
2023-04-19T17:36:47.008Z,7.43
2023-04-19T17:39:13.520Z,5.83
2023-04-19T17:41:40.672Z,10.63
2023-04-19T17:44:07.254Z,6.17
2023-04-19T17:46:33.876Z,8.73
2023-04-19T17:49:00.579Z,8.10
2023-04-19T17:51:27.084Z,15.47
2023-04-19T17:53:53.619Z,14.37
2023-04-19T17:56:20.591Z,12.60
2023-04-19T17:58:47.088Z,10.60
2023-04-19T18:01:15.544Z,8.87
2023-04-19T18:03:42.102Z,10.23
2023-04-19T18:06:09.859Z,6.93
2023-04-19T18:08:36.366Z,5.90
2023-04-19T18:11:02.866Z,9.57
2023-04-19T18:13:29.368Z,6.03
2023-04-19T18:15:55.940Z,7.67
2023-04-19T18:18:22.613Z,8.40
2023-04-19T18:20:49.591Z,8.13
2023-04-19T18:23:16.140Z,8.93
2023-04-19T18:25:42.641Z,8.07
2023-04-19T18:28:09.138Z,7.43
2023-04-19T18:30:35.871Z,9.33
2023-04-19T18:33:02.426Z,7.20
2023-04-19T18:35:29.254Z,8.17
2023-04-19T18:37:55.762Z,7.73
2023-04-19T18:40:22.285Z,8.60
2023-04-19T18:42:48.780Z,9.47
2023-04-19T18:45:15.252Z,10.60
2023-04-19T18:47:41.841Z,11.67
2023-04-19T18:50:09.283Z,7.87
2023-04-19T18:52:40.144Z,12.00
2023-04-19T18:55:07.523Z,10.17
2023-04-19T18:57:35.044Z,14.07
2023-04-19T19:00:04.867Z,12.00
2023-04-19T19:02:33.216Z,12.33
2023-04-19T19:05:01.918Z,10.57
2023-04-19T19:07:36.314Z,10.83
2023-04-19T19:10:18.319Z,9.20
2023-04-19T19:12:47.252Z,10.77
2023-04-19T19:15:14.211Z,10.07
2023-04-19T19:17:41.100Z,10.40
2023-04-19T19:20:09.246Z,12.43
2023-04-19T19:22:35.775Z,9.80
2023-04-19T19:25:03.142Z,8.67
2023-04-19T19:27:29.674Z,9.20
2023-04-19T19:29:57.848Z,9.90
2023-04-19T19:32:24.558Z,10.10
2023-04-19T19:34:56.241Z,9.53
2023-04-19T19:37:27.654Z,9.97
2023-04-19T19:39:56.399Z,9.40
2023-04-19T19:42:23.971Z,10.77
2023-04-19T19:44:55.068Z,15.43
2023-04-19T19:47:23.783Z,14.90
2023-04-19T19:50:34.921Z,16.37
2023-04-19T19:53:20.972Z,14.20
2023-04-19T19:55:47.483Z,24.97
2023-04-19T19:58:42.236Z,15.70
2023-04-19T20:03:42.288Z,16.47
2023-04-19T20:08:43.885Z,14.60
2023-04-19T20:11:11.138Z,13.87
2023-04-19T20:13:37.626Z,14.97
2023-04-19T20:16:05.052Z,12.43
2023-04-19T20:18:31.617Z,13.33
2023-04-19T20:20:58.119Z,11.50
2023-04-19T20:23:24.734Z,14.93
2023-04-19T20:25:52.066Z,15.47
2023-04-19T20:28:18.736Z,15.30
2023-04-19T20:30:45.215Z,14.00
2023-04-19T20:33:11.804Z,14.00
2023-04-19T20:35:38.327Z,14.50
2023-04-19T20:38:06.926Z,16.47
2023-04-19T20:40:33.410Z,12.37
2023-04-19T20:43:00.240Z,18.03
2023-04-19T20:45:26.945Z,12.60
2023-04-19T20:47:54.888Z,11.83
2023-04-19T20:50:21.674Z,13.03
2023-04-19T20:52:48.163Z,12.30
2023-04-19T20:55:14.757Z,16.43
2023-04-19T20:57:41.253Z,11.87
2023-04-19T21:00:09.205Z,12.80
2023-04-19T21:02:36.033Z,9.50
2023-04-19T21:05:02.630Z,5.47
2023-04-19T21:07:29.137Z,3.50
2023-04-19T21:09:55.650Z,3.77
2023-04-19T21:12:22.134Z,2.10
2023-04-19T21:14:50.235Z,1.20
2023-04-19T21:17:16.727Z,1.70
2023-04-19T21:19:43.228Z,1.60
2023-04-19T21:22:09.980Z,0.80
2023-04-19T21:24:36.526Z,0.93
2023-04-19T21:27:03.203Z,0.60
2023-04-19T21:29:29.687Z,0.60
2023-04-19T21:31:56.251Z,2.07
2023-04-19T21:34:22.857Z,0.60
2023-04-19T21:36:49.422Z,0.40
2023-04-19T21:39:16.073Z,0.50
2023-04-19T21:41:42.886Z,0.50
2023-04-19T21:44:09.380Z,0.80
2023-04-19T21:46:35.984Z,0.30
2023-04-19T21:49:02.579Z,0.40
2023-04-19T21:51:29.057Z,0.67
2023-04-19T21:53:55.589Z,0.40
2023-04-19T21:56:22.064Z,0.50
2023-04-19T21:58:48.565Z,0.73
2023-04-19T22:01:15.066Z,0.50
2023-04-19T22:03:41.989Z,0.47
2023-04-19T22:06:08.790Z,0.43
2023-04-19T22:08:35.618Z,0.30
2023-04-19T22:11:03.014Z,0.50
2023-04-19T22:13:29.845Z,2.90
2023-04-19T22:15:56.434Z,0.33
2023-04-19T22:18:23.022Z,1.67
2023-04-19T22:20:51.192Z,0.60
2023-04-19T22:23:17.705Z,0.30
2023-04-19T22:25:44.416Z,0.40
2023-04-19T22:28:10.897Z,0.30
2023-04-19T22:30:37.398Z,0.73
2023-04-19T22:33:04.210Z,0.93
2023-04-19T22:35:30.821Z,0.83
2023-04-19T22:37:57.328Z,0.80
2023-04-19T22:40:23.936Z,1.00
2023-04-19T22:42:50.512Z,0.57
2023-04-19T22:45:17.211Z,0.53
2023-04-19T22:47:44.535Z,2.20
2023-04-19T22:50:11.250Z,0.80
2023-04-19T22:52:37.746Z,3.90
2023-04-19T22:55:04.896Z,1.10
2023-04-19T22:57:31.374Z,2.60
2023-04-19T22:59:57.873Z,1.70
2023-04-19T23:02:24.447Z,5.30
2023-04-19T23:04:51.402Z,0.50
2023-04-19T23:07:19.181Z,0.47
2023-04-19T23:09:46.461Z,0.40
2023-04-19T23:12:14.919Z,0.60
2023-04-19T23:14:41.773Z,0.50
2023-04-19T23:17:08.261Z,0.77
2023-04-19T23:19:36.839Z,0.40
2023-04-19T23:22:04.779Z,0.77
2023-04-19T23:24:31.277Z,0.40
2023-04-19T23:26:57.771Z,0.40
2023-04-19T23:29:24.271Z,2.00
2023-04-19T23:31:50.854Z,0.30
2023-04-19T23:34:17.437Z,0.40
2023-04-19T23:36:43.992Z,0.53
2023-04-19T23:39:10.478Z,0.60
2023-04-19T23:41:36.941Z,0.70
2023-04-19T23:44:05.839Z,2.00
2023-04-19T23:46:32.413Z,1.30
2023-04-19T23:48:58.892Z,1.10
2023-04-19T23:51:25.387Z,0.50
2023-04-19T23:53:51.869Z,0.90
2023-04-19T23:56:18.624Z,0.60
2023-04-19T23:58:45.178Z,1.60
